This is the latest recevied weather packets stored in our database for station/object KE5OYL. If no packets are shown the sender has not sent any weather packets the latest 10 day(s).
| Time | Temp. | Humidity | Pressure | Rain* | Wind** | Luminosity | Snow |
|---|---|---|---|---|---|---|---|
| 1788626256 | 33.89° C | 51% | 1015.4 hPa | 0 mm | - | 656 W/m² | - |
| 1788625973 | 34.44° C | 52% | 1015.5 hPa | 0 mm | - | 650 W/m² | - |
| 1788625649 | 33.89° C | 52% | 1015.2 hPa | 0 mm | - | 647 W/m² | - |
| 1788625348 | 32.78° C | 54% | 1015.4 hPa | 0 mm | - | 617 W/m² | - |
| 1788625043 | 32.22° C | 56% | 1015.4 hPa | 0 mm | - | 608 W/m² | - |
| 1788624741 | 32.78° C | 54% | 1015.3 hPa | 0 mm | - | 591 W/m² | - |
| 1788624440 | 33.89° C | 53% | 1015.4 hPa | 0 mm | - | 584 W/m² | - |
| 1788624140 | 32.78° C | 55% | 1015.4 hPa | 0 mm | - | 581 W/m² | - |
| 1788623834 | 32.22° C | 57% | 1015.2 hPa | 0 mm | - | 565 W/m² | - |
| 1788623533 | 32.78° C | 57% | 1015.3 hPa | 0 mm | - | 555 W/m² | - |
| 1788623228 | 32.22° C | 57% | 1015.3 hPa | 0 mm | - | 534 W/m² | - |
| 1788622924 | 31.67° C | 59% | 1015.6 hPa | 0 mm | - | 524 W/m² | - |
| 1788622619 | 32.78° C | 58% | 1015.4 hPa | 0 mm | - | 506 W/m² | - |
| 1788622315 | 32.22° C | 59% | 1015.6 hPa | 0 mm | - | 488 W/m² | - |
| 1788622009 | 31.67° C | 61% | 1015.4 hPa | 0 mm | - | 468 W/m² | - |
| 1788621704 | 31.67° C | 61% | 1015.6 hPa | 0 mm | - | 457 W/m² | - |
| 1788621399 | 31.67° C | 61% | 1015.3 hPa | 0 mm | - | 440 W/m² | - |
| 1788621094 | 31.11° C | 63% | 1015.4 hPa | 0 mm | - | 428 W/m² | - |
| 1788620789 | 30.56° C | 65% | 1015.4 hPa | 0 mm | - | 413 W/m² | - |
| 1788620488 | 31.11° C | 63% | 1015.2 hPa | 0 mm | - | 395 W/m² | - |
| 1788620186 | 30.56° C | 66% | 1015.1 hPa | 0 mm | - | 383 W/m² | - |
| 1788619885 | 31.11° C | 65% | 1015.2 hPa | 0 mm | - | 366 W/m² | - |
| 1788619580 | 30.56° C | 67% | 1015.4 hPa | 0 mm | - | 352 W/m² | - |
| 1788619280 | 30.56° C | 65% | 1015.2 hPa | 0 mm | - | 338 W/m² | - |
| 1788618995 | 30.56° C | 66% | 1015.4 hPa | 0 mm | - | 322 W/m² | - |
* Rain latest hour (hover to see other rain measurements)
** Current wind speed in m/s (hover to see current wind gust speed)